»·PEaware :: ASA103 KSEA-KLAS

ASA103 :: KSEA-KLAS

FLIGHT INFORMATION

Flight Status: Arrived
Operator:
Alaska Airlines
More flights by this operator :: More flights under this callsign
Pilot: Chandler S. (807)
Aircraft: Unknown
(B39M)
More flights by this aircraft type
Origin: KSEA Seattle-Tacoma Intl
United States
Destination: KLAS McCarran Intl
United States
More flights between these airports :: More routes between these airports
Route: SUMMA2 LKV RYANN J92 BTY SUNST4
File this flight plan on PilotEdge
Remarks:
Altitude:
(Current/Filed)
35,000ft
Speed:
(Current/Filed)
400kts
Departed: 17-Feb-21 01:52 PM
Arrived: 17-Feb-21 03:34 PM
Distance/Time
Traveled:
753nm/1:42
Distance/Time
To Go:
Arrived

Flight Plot

Page will automatically refresh every two minutes.

Flight plan parsing failed; only flown route is shown


Map Options




Map Legend


Flown Route
Filed Route
Departure Airport
Arrival Airport
Navaid (VOR, NDB)
Fix

Horizontal Profiles

Position Reports

Time Latitude Longitude Heading Altitude Ground
Speed
17-Feb-21 13:26 47.446574 -122.303441 222 440ft 0kts
17-Feb-21 13:27 47.446574 -122.303441 222 440ft 0kts
17-Feb-21 13:28 47.446574 -122.303441 222 440ft 0kts
17-Feb-21 13:29 47.446574 -122.303441 222 440ft 0kts
17-Feb-21 13:30 47.446574 -122.303441 222 440ft 0kts
17-Feb-21 13:31 47.446574 -122.303441 222 440ft 0kts
17-Feb-21 13:32 47.446574 -122.303441 222 440ft 0kts
17-Feb-21 13:33 47.446574 -122.303441 222 440ft 0kts
17-Feb-21 13:35 47.446574 -122.303441 222 440ft 0kts
17-Feb-21 13:36 47.446574 -122.303441 222 440ft 0kts
17-Feb-21 13:37 47.446574 -122.303440 222 440ft 0kts
17-Feb-21 13:38 47.446890 -122.302967 236 440ft 2kts
17-Feb-21 13:39 47.447052 -122.302443 255 440ft 0kts
17-Feb-21 13:40 47.447052 -122.302443 254 440ft 0kts
17-Feb-21 13:41 47.447052 -122.302443 254 440ft 0kts
17-Feb-21 13:42 47.447653 -122.304682 270 440ft 0kts
17-Feb-21 13:43 47.447653 -122.304682 270 440ft 0kts
17-Feb-21 13:44 47.447653 -122.304682 270 440ft 0kts
17-Feb-21 13:45 47.447653 -122.304682 270 440ft 0kts
17-Feb-21 13:46 47.447653 -122.304682 270 440ft 0kts
17-Feb-21 13:47 47.449025 -122.306114 348 440ft 21kts
17-Feb-21 13:48 47.454675 -122.306236 0 440ft 20kts
17-Feb-21 13:49 47.462434 -122.306146 359 440ft 31kts
17-Feb-21 13:50 47.463613 -122.306409 309 440ft 0kts
17-Feb-21 13:51 47.463613 -122.306409 309 440ft 0kts
17-Feb-21 13:52 47.455659 -122.307808 180 449ft 165kts
17-Feb-21 13:53 47.398376 -122.305689 196 3691ft 230kts
17-Feb-21 13:54 47.334983 -122.315940 177 6694ft 236kts
17-Feb-21 13:54 47.278988 -122.311708 178 9181ft 259kts
17-Feb-21 13:56 47.194800 -122.275570 159 12734ft 291kts
17-Feb-21 13:56 47.131887 -122.242907 162 15159ft 309kts
17-Feb-21 13:57 47.047967 -122.200990 164 18169ft 333kts
17-Feb-21 13:59 47.009017 -122.181573 164 19505ft 341kts
17-Feb-21 14:01 46.728238 -122.042807 164 23390ft 486kts
17-Feb-21 14:01 46.618928 -121.988575 164 23392ft 513kts
17-Feb-21 14:02 46.479307 -121.934414 169 23394ft 526kts
17-Feb-21 14:03 46.340015 -121.881440 170 25059ft 507kts
17-Feb-21 14:04 46.200413 -121.828649 170 26196ft 530kts
17-Feb-21 14:05 46.057969 -121.774801 172 29053ft 532kts
17-Feb-21 14:06 45.916258 -121.721489 175 31946ft 525kts
17-Feb-21 14:07 45.777108 -121.669269 177 34729ft 509kts
17-Feb-21 14:08 45.636757 -121.617430 176 35397ft 551kts
17-Feb-21 14:09 45.481846 -121.560425 175 35390ft 589kts
17-Feb-21 14:10 45.324274 -121.502304 175 35393ft 589kts
17-Feb-21 14:11 45.166206 -121.444311 175 35393ft 588kts
17-Feb-21 14:12 45.008869 -121.386955 174 35397ft 585kts
17-Feb-21 14:13 44.851679 -121.329694 175 35318ft 581kts
17-Feb-21 14:14 44.695102 -121.272757 175 35280ft 584kts
17-Feb-21 14:15 44.538408 -121.216133 175 35288ft 584kts
17-Feb-21 14:16 44.380892 -121.159654 175 35293ft 587kts
17-Feb-21 14:17 44.222335 -121.103180 174 35295ft 594kts
17-Feb-21 14:18 44.062133 -121.046454 174 35306ft 599kts
17-Feb-21 14:19 43.901373 -120.989986 173 35312ft 602kts
17-Feb-21 14:20 43.740740 -120.933748 174 35289ft 605kts
17-Feb-21 14:21 43.578331 -120.877236 173 35297ft 606kts
17-Feb-21 14:22 43.415590 -120.820956 173 35298ft 602kts
17-Feb-21 14:23 43.253315 -120.765180 173 35302ft 603kts
17-Feb-21 14:24 43.089681 -120.709357 173 35301ft 611kts
17-Feb-21 14:25 42.925048 -120.653433 172 35296ft 613kts
17-Feb-21 14:26 42.759668 -120.597522 172 35274ft 613kts
17-Feb-21 14:27 42.594799 -120.542068 172 35276ft 613kts
17-Feb-21 14:28 42.429864 -120.484115 168 35284ft 618kts
17-Feb-21 14:29 42.265601 -120.418604 169 35288ft 616kts
17-Feb-21 14:30 42.101347 -120.354042 169 35299ft 614kts
17-Feb-21 14:31 41.937934 -120.290003 170 35286ft 615kts
17-Feb-21 14:32 41.773598 -120.225980 170 35266ft 616kts
17-Feb-21 14:33 41.609604 -120.162494 170 35276ft 615kts
17-Feb-21 14:34 41.512558 -120.125040 170 35281ft 616kts
17-Feb-21 14:35 41.281521 -120.036567 170 35288ft 615kts
17-Feb-21 14:36 41.117726 -119.974289 170 35295ft 614kts
17-Feb-21 14:37 40.978899 -119.921764 169 35300ft 616kts
17-Feb-21 14:38 40.790293 -119.850768 168 35250ft 614kts
17-Feb-21 14:39 40.626393 -119.789428 169 35255ft 613kts
17-Feb-21 14:40 40.469309 -119.730921 168 35261ft 615kts
17-Feb-21 14:41 40.298378 -119.667587 168 35258ft 614kts
17-Feb-21 14:42 40.167721 -119.619459 168 35262ft 615kts
17-Feb-21 14:43 39.970355 -119.546995 168 35268ft 613kts
17-Feb-21 14:44 39.806334 -119.487118 168 35243ft 612kts
17-Feb-21 14:45 39.642451 -119.427588 168 35252ft 613kts
17-Feb-21 14:47 39.346926 -119.320776 169 35237ft 614kts
17-Feb-21 14:48 39.194037 -119.223316 142 35245ft 621kts
17-Feb-21 14:49 39.068132 -119.072922 132 35254ft 618kts
17-Feb-21 14:50 38.945417 -118.919838 130 35262ft 614kts
17-Feb-21 14:51 38.823445 -118.768640 129 35230ft 612kts
17-Feb-21 14:52 38.701002 -118.617670 129 35235ft 612kts
17-Feb-21 14:53 38.578173 -118.467052 129 35239ft 612kts
17-Feb-21 14:54 38.455419 -118.317209 129 35236ft 612kts
17-Feb-21 14:55 38.332904 -118.167956 129 35241ft 611kts
17-Feb-21 14:56 38.210050 -118.019232 129 35230ft 612kts
17-Feb-21 14:57 38.086621 -117.870705 129 35174ft 612kts
17-Feb-21 14:58 37.958648 -117.728644 141 35169ft 622kts
17-Feb-21 14:59 37.814365 -117.607307 141 35131ft 621kts
17-Feb-21 15:00 37.671651 -117.484825 141 35136ft 621kts
17-Feb-21 15:01 37.528890 -117.362903 141 35142ft 621kts
17-Feb-21 15:02 37.386935 -117.241792 141 35138ft 622kts
17-Feb-21 15:03 37.243856 -117.120300 141 34076ft 615kts
17-Feb-21 15:04 37.105987 -117.003988 141 31910ft 579kts
17-Feb-21 15:05 36.977016 -116.895725 141 30025ft 545kts
17-Feb-21 15:06 36.853666 -116.792558 141 28166ft 523kts
17-Feb-21 15:07 36.748589 -116.677773 119 26361ft 486kts
17-Feb-21 15:08 36.662815 -116.550921 124 24642ft 473kts
17-Feb-21 15:09 36.577859 -116.430704 124 23118ft 456kts
17-Feb-21 15:10 36.495525 -116.314533 125 21620ft 441kts
17-Feb-21 15:11 36.415828 -116.202221 125 20119ft 427kts
17-Feb-21 15:12 36.339022 -116.094439 126 18619ft 400kts
17-Feb-21 15:13 36.273125 -116.002307 126 17282ft 369kts
17-Feb-21 15:14 36.207353 -115.910116 125 16025ft 350kts
17-Feb-21 15:15 36.139599 -115.824727 130 14785ft 342kts
17-Feb-21 15:16 36.073966 -115.742604 130 13518ft 331kts
17-Feb-21 15:17 36.010936 -115.662345 130 12344ft 321kts
17-Feb-21 15:18 35.949984 -115.583478 130 11166ft 314kts
17-Feb-21 15:19 35.890500 -115.506110 130 10033ft 305kts
17-Feb-21 15:20 35.837130 -115.436996 130 10005ft 263kts
17-Feb-21 15:21 35.786735 -115.371792 130 8845ft 258kts
17-Feb-21 15:22 35.738555 -115.308971 130 7330ft 244kts
17-Feb-21 15:23 35.692581 -115.248777 130 7106ft 244kts
17-Feb-21 15:24 35.709230 -115.194076 12 7108ft 204kts
17-Feb-21 15:25 35.764309 -115.178986 2 6955ft 200kts
17-Feb-21 15:26 35.819257 -115.186595 349 6335ft 197kts
17-Feb-21 15:27 35.873476 -115.197407 349 5691ft 191kts
17-Feb-21 15:28 35.923813 -115.207272 349 4787ft 175kts
17-Feb-21 15:29 35.971416 -115.213360 356 4088ft 168kts
17-Feb-21 15:30 36.012753 -115.201752 18 3614ft 151kts
17-Feb-21 15:31 36.050018 -115.181329 16 2867ft 138kts
17-Feb-21 15:32 36.081750 -115.163212 23 2189ft 86kts
17-Feb-21 15:33 36.087449 -115.158423 135 2189ft 0kts
17-Feb-21 15:34 36.084979 -115.156908 153 2189ft 24kts
17-Feb-21 15:35 36.079783 -115.153908 154 2189ft 20kts
17-Feb-21 15:36 36.078629 -115.148246 93 2189ft 28kts
17-Feb-21 15:37 36.080152 -115.142409 357 2189ft 19kts
17-Feb-21 15:38 36.084480 -115.140491 49 2189ft 11kts
17-Feb-21 15:39 36.084937 -115.137421 3 2188ft 5kts
17-Feb-21 15:40 36.085213 -115.137415 359 2189ft 0kts
17-Feb-21 15:41 36.085213 -115.137415 359 2189ft 0kts

Navigation Log

Ident Type
Flight plan parsing failed, navigation log unavailable